sensor_id;sensor_type;location;lat;lon;timestamp;temperature;humidity
13742;DHT22;8461;52.356;10.704;2023-09-12T00:00:45;18.20;99.90
13742;DHT22;8461;52.356;10.704;2023-09-12T00:03:11;18.10;99.90
13742;DHT22;8461;52.356;10.704;2023-09-12T00:05:37;18.10;99.90
13742;DHT22;8461;52.356;10.704;2023-09-12T00:08:02;18.00;99.90
13742;DHT22;8461;52.356;10.704;2023-09-12T00:10:29;18.10;99.90
13742;DHT22;8461;52.356;10.704;2023-09-12T00:12:55;18.20;99.90
13742;DHT22;8461;52.356;10.704;2023-09-12T00:15:20;18.20;99.90
13742;DHT22;8461;52.356;10.704;2023-09-12T00:17:46;18.30;99.90
13742;DHT22;8461;52.356;10.704;2023-09-12T00:20:14;18.40;99.90
13742;DHT22;8461;52.356;10.704;2023-09-12T00:22:39;18.40;99.90
13742;DHT22;8461;52.356;10.704;2023-09-12T00:25:05;18.40;99.90
13742;DHT22;8461;52.356;10.704;2023-09-12T00:27:31;18.30;99.90
13742;DHT22;8461;52.356;10.704;2023-09-12T00:29:56;18.20;99.90
13742;DHT22;8461;52.356;10.704;2023-09-12T00:32:22;18.20;99.90
13742;DHT22;8461;52.356;10.704;2023-09-12T00:34:47;18.30;99.90
13742;DHT22;8461;52.356;10.704;2023-09-12T00:37:13;18.30;99.90
13742;DHT22;8461;52.356;10.704;2023-09-12T00:39:38;18.20;99.90
13742;DHT22;8461;52.356;10.704;2023-09-12T00:42:04;18.20;99.90
13742;DHT22;8461;52.356;10.704;2023-09-12T00:44:33;18.10;99.90
13742;DHT22;8461;52.356;10.704;2023-09-12T00:46:59;18.10;99.90
13742;DHT22;8461;52.356;10.704;2023-09-12T00:49:25;18.00;99.90
13742;DHT22;8461;52.356;10.704;2023-09-12T00:51:52;18.10;99.90
13742;DHT22;8461;52.356;10.704;2023-09-12T00:54:18;18.00;99.90
13742;DHT22;8461;52.356;10.704;2023-09-12T00:56:43;17.90;99.90
13742;DHT22;8461;52.356;10.704;2023-09-12T00:59:10;17.90;99.90
13742;DHT22;8461;52.356;10.704;2023-09-12T01:01:36;17.80;99.90
13742;DHT22;8461;52.356;10.704;2023-09-12T01:04:02;17.80;99.90
13742;DHT22;8461;52.356;10.704;2023-09-12T01:06:29;17.70;99.90
13742;DHT22;8461;52.356;10.704;2023-09-12T01:08:57;17.70;99.90
13742;DHT22;8461;52.356;10.704;2023-09-12T01:11:22;17.60;99.90
13742;DHT22;8461;52.356;10.704;2023-09-12T01:13:49;17.60;99.90
13742;DHT22;8461;52.356;10.704;2023-09-12T01:16:14;17.60;99.90
13742;DHT22;8461;52.356;10.704;2023-09-12T01:18:40;17.70;99.90
13742;DHT22;8461;52.356;10.704;2023-09-12T01:27:35;17.80;99.90
13742;DHT22;8461;52.356;10.704;2023-09-12T01:30:05;17.80;99.90
13742;DHT22;8461;52.356;10.704;2023-09-12T01:32:32;17.70;99.90
13742;DHT22;8461;52.356;10.704;2023-09-12T01:34:58;17.70;99.90
13742;DHT22;8461;52.356;10.704;2023-09-12T01:37:23;17.70;99.90
13742;DHT22;8461;52.356;10.704;2023-09-12T01:39:49;17.80;99.90
13742;DHT22;8461;52.356;10.704;2023-09-12T01:42:18;17.90;99.90
13742;DHT22;8461;52.356;10.704;2023-09-12T01:44:44;18.00;99.90
13742;DHT22;8461;52.356;10.704;2023-09-12T01:47:11;18.00;99.90
13742;DHT22;8461;52.356;10.704;2023-09-12T01:49:39;17.90;99.90
13742;DHT22;8461;52.356;10.704;2023-09-12T01:52:06;17.80;99.90
13742;DHT22;8461;52.356;10.704;2023-09-12T01:54:33;17.80;99.90
13742;DHT22;8461;52.356;10.704;2023-09-12T01:57:00;18.00;99.90
13742;DHT22;8461;52.356;10.704;2023-09-12T01:59:28;18.00;99.90
13742;DHT22;8461;52.356;10.704;2023-09-12T02:01:53;17.90;99.90
13742;DHT22;8461;52.356;10.704;2023-09-12T02:04:19;17.80;99.90
13742;DHT22;8461;52.356;10.704;2023-09-12T02:06:44;17.80;99.90
13742;DHT22;8461;52.356;10.704;2023-09-12T02:09:10;17.80;99.90
13742;DHT22;8461;52.356;10.704;2023-09-12T02:11:35;17.80;99.90
13742;DHT22;8461;52.356;10.704;2023-09-12T02:14:01;17.70;99.90
13742;DHT22;8461;52.356;10.704;2023-09-12T02:16:26;17.60;99.90
13742;DHT22;8461;52.356;10.704;2023-09-12T02:18:52;17.50;99.90
13742;DHT22;8461;52.356;10.704;2023-09-12T02:21:17;17.50;99.90
13742;DHT22;8461;52.356;10.704;2023-09-12T02:23:43;17.60;99.90
13742;DHT22;8461;52.356;10.704;2023-09-12T02:26:09;17.50;99.90
13742;DHT22;8461;52.356;10.704;2023-09-12T02:28:34;17.60;99.90
13742;DHT22;8461;52.356;10.704;2023-09-12T02:31:00;17.50;99.90
13742;DHT22;8461;52.356;10.704;2023-09-12T02:33:25;17.20;99.90
13742;DHT22;8461;52.356;10.704;2023-09-12T02:35:51;17.20;99.90
13742;DHT22;8461;52.356;10.704;2023-09-12T02:38:18;17.20;99.90
13742;DHT22;8461;52.356;10.704;2023-09-12T02:40:43;17.20;99.90
13742;DHT22;8461;52.356;10.704;2023-09-12T02:43:09;17.20;99.90
13742;DHT22;8461;52.356;10.704;2023-09-12T02:45:34;17.30;99.90
13742;DHT22;8461;52.356;10.704;2023-09-12T02:48:00;17.20;99.90
13742;DHT22;8461;52.356;10.704;2023-09-12T02:50:26;17.20;99.90
13742;DHT22;8461;52.356;10.704;2023-09-12T02:52:51;17.10;99.90
13742;DHT22;8461;52.356;10.704;2023-09-12T02:55:17;17.30;99.90
13742;DHT22;8461;52.356;10.704;2023-09-12T02:57:42;17.40;99.90
13742;DHT22;8461;52.356;10.704;2023-09-12T03:00:08;17.50;99.90
13742;DHT22;8461;52.356;10.704;2023-09-12T03:02:34;17.50;99.90
13742;DHT22;8461;52.356;10.704;2023-09-12T03:05:00;17.40;99.90
13742;DHT22;8461;52.356;10.704;2023-09-12T03:07:27;17.50;99.90
13742;DHT22;8461;52.356;10.704;2023-09-12T03:09:52;17.50;99.90
13742;DHT22;8461;52.356;10.704;2023-09-12T03:12:18;17.50;99.90
13742;DHT22;8461;52.356;10.704;2023-09-12T03:14:43;17.60;99.90
13742;DHT22;8461;52.356;10.704;2023-09-12T03:17:09;17.50;99.90
13742;DHT22;8461;52.356;10.704;2023-09-12T03:19:34;17.50;99.90
13742;DHT22;8461;52.356;10.704;2023-09-12T03:22:00;17.50;99.90
13742;DHT22;8461;52.356;10.704;2023-09-12T03:24:25;17.40;99.90
13742;DHT22;8461;52.356;10.704;2023-09-12T03:26:54;17.30;99.90
13742;DHT22;8461;52.356;10.704;2023-09-12T03:29:19;17.20;99.90
13742;DHT22;8461;52.356;10.704;2023-09-12T03:31:45;17.10;99.90
13742;DHT22;8461;52.356;10.704;2023-09-12T03:34:10;16.80;99.90
13742;DHT22;8461;52.356;10.704;2023-09-12T03:36:36;17.00;99.90
13742;DHT22;8461;52.356;10.704;2023-09-12T03:39:01;16.80;99.90
13742;DHT22;8461;52.356;10.704;2023-09-12T03:41:28;16.90;99.90
13742;DHT22;8461;52.356;10.704;2023-09-12T03:43:54;16.90;99.90
13742;DHT22;8461;52.356;10.704;2023-09-12T03:46:20;17.00;99.90
13742;DHT22;8461;52.356;10.704;2023-09-12T03:48:46;17.10;99.90
13742;DHT22;8461;52.356;10.704;2023-09-12T03:51:12;17.10;99.90
13742;DHT22;8461;52.356;10.704;2023-09-12T03:53:38;17.10;99.90
13742;DHT22;8461;52.356;10.704;2023-09-12T03:56:04;17.10;99.90
13742;DHT22;8461;52.356;10.704;2023-09-12T03:58:29;17.10;99.90
13742;DHT22;8461;52.356;10.704;2023-09-12T04:00:55;17.10;99.90
13742;DHT22;8461;52.356;10.704;2023-09-12T04:03:20;17.10;99.90
13742;DHT22;8461;52.356;10.704;2023-09-12T04:05:46;16.90;99.90
13742;DHT22;8461;52.356;10.704;2023-09-12T04:08:13;16.90;99.90
13742;DHT22;8461;52.356;10.704;2023-09-12T04:10:38;16.80;99.90
13742;DHT22;8461;52.356;10.704;2023-09-12T04:13:04;16.80;99.90
13742;DHT22;8461;52.356;10.704;2023-09-12T04:15:29;16.90;99.90
13742;DHT22;8461;52.356;10.704;2023-09-12T04:17:55;17.10;99.90
13742;DHT22;8461;52.356;10.704;2023-09-12T04:20:20;17.20;99.90
13742;DHT22;8461;52.356;10.704;2023-09-12T04:22:46;17.20;99.90
13742;DHT22;8461;52.356;10.704;2023-09-12T04:25:12;17.20;99.90
13742;DHT22;8461;52.356;10.704;2023-09-12T04:27:37;17.20;99.90
13742;DHT22;8461;52.356;10.704;2023-09-12T04:30:03;16.70;99.90
13742;DHT22;8461;52.356;10.704;2023-09-12T04:32:29;17.10;99.90
13742;DHT22;8461;52.356;10.704;2023-09-12T04:34:54;17.10;99.90
13742;DHT22;8461;52.356;10.704;2023-09-12T04:37:20;17.00;99.90
13742;DHT22;8461;52.356;10.704;2023-09-12T04:39:45;17.00;99.90
13742;DHT22;8461;52.356;10.704;2023-09-12T04:42:11;17.00;99.90
13742;DHT22;8461;52.356;10.704;2023-09-12T04:44:41;17.20;99.90
13742;DHT22;8461;52.356;10.704;2023-09-12T04:47:07;17.20;99.90
13742;DHT22;8461;52.356;10.704;2023-09-12T04:49:33;17.20;99.90
13742;DHT22;8461;52.356;10.704;2023-09-12T04:51:59;17.30;99.90
13742;DHT22;8461;52.356;10.704;2023-09-12T04:54:25;17.40;99.90
13742;DHT22;8461;52.356;10.704;2023-09-12T04:56:50;17.60;99.90
13742;DHT22;8461;52.356;10.704;2023-09-12T04:59:16;17.70;99.90
13742;DHT22;8461;52.356;10.704;2023-09-12T05:01:41;17.80;99.90
13742;DHT22;8461;52.356;10.704;2023-09-12T05:04:07;18.00;99.90
13742;DHT22;8461;52.356;10.704;2023-09-12T05:06:33;18.00;99.90
13742;DHT22;8461;52.356;10.704;2023-09-12T05:08:59;18.00;99.90
13742;DHT22;8461;52.356;10.704;2023-09-12T05:11:24;18.00;99.90
13742;DHT22;8461;52.356;10.704;2023-09-12T05:13:50;18.00;99.90
13742;DHT22;8461;52.356;10.704;2023-09-12T05:16:16;18.00;99.90
13742;DHT22;8461;52.356;10.704;2023-09-12T05:18:42;18.00;99.90
13742;DHT22;8461;52.356;10.704;2023-09-12T05:21:07;18.00;99.90
13742;DHT22;8461;52.356;10.704;2023-09-12T05:23:33;18.00;99.90
13742;DHT22;8461;52.356;10.704;2023-09-12T05:25:58;18.10;99.90
13742;DHT22;8461;52.356;10.704;2023-09-12T05:28:24;18.10;99.90
13742;DHT22;8461;52.356;10.704;2023-09-12T05:30:49;18.20;99.90
13742;DHT22;8461;52.356;10.704;2023-09-12T05:33:17;18.30;99.90
13742;DHT22;8461;52.356;10.704;2023-09-12T05:35:42;18.40;99.90
13742;DHT22;8461;52.356;10.704;2023-09-12T05:38:10;18.50;99.90
13742;DHT22;8461;52.356;10.704;2023-09-12T05:40:35;18.60;99.90
13742;DHT22;8461;52.356;10.704;2023-09-12T05:43:01;18.70;99.90
13742;DHT22;8461;52.356;10.704;2023-09-12T05:45:27;18.80;99.90
13742;DHT22;8461;52.356;10.704;2023-09-12T05:47:54;19.00;99.90
13742;DHT22;8461;52.356;10.704;2023-09-12T05:50:20;19.10;99.90
13742;DHT22;8461;52.356;10.704;2023-09-12T05:52:46;19.20;99.90
13742;DHT22;8461;52.356;10.704;2023-09-12T05:55:11;19.50;99.90
13742;DHT22;8461;52.356;10.704;2023-09-12T05:57:37;18.50;99.90
13742;DHT22;8461;52.356;10.704;2023-09-12T06:00:03;19.50;99.90
13742;DHT22;8461;52.356;10.704;2023-09-12T06:02:30;19.50;99.90
13742;DHT22;8461;52.356;10.704;2023-09-12T06:04:58;19.60;99.90
13742;DHT22;8461;52.356;10.704;2023-09-12T06:07:24;19.60;99.90
13742;DHT22;8461;52.356;10.704;2023-09-12T06:09:50;19.70;99.90
13742;DHT22;8461;52.356;10.704;2023-09-12T06:12:16;19.70;99.90
13742;DHT22;8461;52.356;10.704;2023-09-12T06:14:41;19.60;99.90
13742;DHT22;8461;52.356;10.704;2023-09-12T06:17:07;19.80;99.90
13742;DHT22;8461;52.356;10.704;2023-09-12T06:19:32;19.70;99.90
13742;DHT22;8461;52.356;10.704;2023-09-12T06:21:58;19.80;99.90
13742;DHT22;8461;52.356;10.704;2023-09-12T06:24:24;19.70;99.90
13742;DHT22;8461;52.356;10.704;2023-09-12T06:26:49;19.70;99.90
13742;DHT22;8461;52.356;10.704;2023-09-12T06:29:15;19.80;99.90
13742;DHT22;8461;52.356;10.704;2023-09-12T06:31:41;19.90;99.90
13742;DHT22;8461;52.356;10.704;2023-09-12T06:34:07;20.00;99.90
13742;DHT22;8461;52.356;10.704;2023-09-12T06:36:33;19.90;99.90
13742;DHT22;8461;52.356;10.704;2023-09-12T06:39:00;19.70;99.90
13742;DHT22;8461;52.356;10.704;2023-09-12T06:41:26;19.80;99.90
13742;DHT22;8461;52.356;10.704;2023-09-12T06:43:52;20.00;99.90
13742;DHT22;8461;52.356;10.704;2023-09-12T06:46:18;19.80;99.90
13742;DHT22;8461;52.356;10.704;2023-09-12T06:51:15;19.80;99.90
13742;DHT22;8461;52.356;10.704;2023-09-12T06:53:41;19.70;99.90
13742;DHT22;8461;52.356;10.704;2023-09-12T06:56:07;19.60;99.90
13742;DHT22;8461;52.356;10.704;2023-09-12T06:58:32;19.60;99.90
13742;DHT22;8461;52.356;10.704;2023-09-12T07:01:02;19.50;99.90
13742;DHT22;8461;52.356;10.704;2023-09-12T07:03:28;19.50;99.90
13742;DHT22;8461;52.356;10.704;2023-09-12T07:05:53;19.50;99.90
13742;DHT22;8461;52.356;10.704;2023-09-12T07:08:19;19.50;99.90
13742;DHT22;8461;52.356;10.704;2023-09-12T07:10:45;19.50;99.90
13742;DHT22;8461;52.356;10.704;2023-09-12T07:13:11;19.60;99.90
13742;DHT22;8461;52.356;10.704;2023-09-12T07:15:37;19.60;99.90
13742;DHT22;8461;52.356;10.704;2023-09-12T07:18:02;19.60;99.90
13742;DHT22;8461;52.356;10.704;2023-09-12T07:20:28;19.40;99.90
13742;DHT22;8461;52.356;10.704;2023-09-12T07:22:54;19.10;99.90
13742;DHT22;8461;52.356;10.704;2023-09-12T07:25:19;19.10;99.90
13742;DHT22;8461;52.356;10.704;2023-09-12T07:27:49;19.00;99.90
13742;DHT22;8461;52.356;10.704;2023-09-12T07:30:15;19.00;99.90
13742;DHT22;8461;52.356;10.704;2023-09-12T07:32:40;18.70;99.90
13742;DHT22;8461;52.356;10.704;2023-09-12T07:35:06;18.60;99.90
13742;DHT22;8461;52.356;10.704;2023-09-12T07:37:32;18.60;99.90
13742;DHT22;8461;52.356;10.704;2023-09-12T07:39:57;18.60;99.90
13742;DHT22;8461;52.356;10.704;2023-09-12T07:42:23;18.60;99.90
13742;DHT22;8461;52.356;10.704;2023-09-12T07:44:49;18.40;99.90
13742;DHT22;8461;52.356;10.704;2023-09-12T07:47:14;18.30;99.90
13742;DHT22;8461;52.356;10.704;2023-09-12T07:49:40;18.20;99.90
13742;DHT22;8461;52.356;10.704;2023-09-12T07:52:06;18.30;99.90
13742;DHT22;8461;52.356;10.704;2023-09-12T07:54:32;18.20;99.90
13742;DHT22;8461;52.356;10.704;2023-09-12T07:56:57;18.30;99.90
13742;DHT22;8461;52.356;10.704;2023-09-12T07:59:24;18.20;99.90
13742;DHT22;8461;52.356;10.704;2023-09-12T08:01:49;17.80;99.90
13742;DHT22;8461;52.356;10.704;2023-09-12T08:04:16;18.20;99.90
13742;DHT22;8461;52.356;10.704;2023-09-12T08:06:42;18.20;99.90
13742;DHT22;8461;52.356;10.704;2023-09-12T08:09:08;18.30;99.90
13742;DHT22;8461;52.356;10.704;2023-09-12T08:11:35;18.40;99.90
13742;DHT22;8461;52.356;10.704;2023-09-12T08:14:00;18.40;99.90
13742;DHT22;8461;52.356;10.704;2023-09-12T08:16:26;18.60;99.90
13742;DHT22;8461;52.356;10.704;2023-09-12T08:18:52;18.60;99.90
13742;DHT22;8461;52.356;10.704;2023-09-12T08:21:17;18.60;99.90
13742;DHT22;8461;52.356;10.704;2023-09-12T08:23:43;18.70;99.90
13742;DHT22;8461;52.356;10.704;2023-09-12T08:26:08;18.80;99.90
13742;DHT22;8461;52.356;10.704;2023-09-12T08:28:34;18.80;99.90
13742;DHT22;8461;52.356;10.704;2023-09-12T08:31:00;18.80;99.90
13742;DHT22;8461;52.356;10.704;2023-09-12T08:33:25;18.80;99.90
13742;DHT22;8461;52.356;10.704;2023-09-12T08:35:51;18.90;99.90
13742;DHT22;8461;52.356;10.704;2023-09-12T08:38:17;18.90;99.90
13742;DHT22;8461;52.356;10.704;2023-09-12T08:40:51;19.10;99.90
13742;DHT22;8461;52.356;10.704;2023-09-12T08:43:17;18.90;99.90
13742;DHT22;8461;52.356;10.704;2023-09-12T08:45:43;19.10;99.90
13742;DHT22;8461;52.356;10.704;2023-09-12T08:48:11;19.10;99.90
13742;DHT22;8461;52.356;10.704;2023-09-12T08:50:36;19.20;99.90
13742;DHT22;8461;52.356;10.704;2023-09-12T08:55:29;19.40;99.90
13742;DHT22;8461;52.356;10.704;2023-09-12T08:57:57;19.50;99.90
13742;DHT22;8461;52.356;10.704;2023-09-12T09:00:24;19.60;99.90
13742;DHT22;8461;52.356;10.704;2023-09-12T09:02:50;19.70;99.90
13742;DHT22;8461;52.356;10.704;2023-09-12T09:05:17;19.70;99.90
13742;DHT22;8461;52.356;10.704;2023-09-12T09:07:45;19.70;99.90
13742;DHT22;8461;52.356;10.704;2023-09-12T09:10:17;19.90;99.90
13742;DHT22;8461;52.356;10.704;2023-09-12T09:12:45;19.30;99.90
13742;DHT22;8461;52.356;10.704;2023-09-12T09:15:28;20.10;99.90
13742;DHT22;8461;52.356;10.704;2023-09-12T09:17:56;20.00;99.90
13742;DHT22;8461;52.356;10.704;2023-09-12T09:20:31;20.10;99.90
13742;DHT22;8461;52.356;10.704;2023-09-12T09:23:02;20.00;99.90
13742;DHT22;8461;52.356;10.704;2023-09-12T09:25:32;19.80;99.90
13742;DHT22;8461;52.356;10.704;2023-09-12T09:27:58;20.00;99.90
13742;DHT22;8461;52.356;10.704;2023-09-12T09:30:44;19.80;99.90
13742;DHT22;8461;52.356;10.704;2023-09-12T09:33:10;20.30;99.90
13742;DHT22;8461;52.356;10.704;2023-09-12T09:35:37;19.90;99.90
13742;DHT22;8461;52.356;10.704;2023-09-12T09:38:03;19.90;99.90
13742;DHT22;8461;52.356;10.704;2023-09-12T09:40:32;20.00;99.90
13742;DHT22;8461;52.356;10.704;2023-09-12T09:43:02;20.00;99.90
13742;DHT22;8461;52.356;10.704;2023-09-12T09:45:29;20.00;99.90
13742;DHT22;8461;52.356;10.704;2023-09-12T09:47:59;20.30;99.90
13742;DHT22;8461;52.356;10.704;2023-09-12T09:50:29;20.10;99.90
13742;DHT22;8461;52.356;10.704;2023-09-12T09:52:55;20.20;99.90
13742;DHT22;8461;52.356;10.704;2023-09-12T09:55:23;20.40;99.90
13742;DHT22;8461;52.356;10.704;2023-09-12T09:57:49;20.50;99.90
13742;DHT22;8461;52.356;10.704;2023-09-12T10:00:18;20.50;99.90
13742;DHT22;8461;52.356;10.704;2023-09-12T10:02:45;20.30;99.90
13742;DHT22;8461;52.356;10.704;2023-09-12T10:05:11;20.40;99.90
13742;DHT22;8461;52.356;10.704;2023-09-12T10:07:38;20.40;99.90
13742;DHT22;8461;52.356;10.704;2023-09-12T10:10:05;20.50;99.90
13742;DHT22;8461;52.356;10.704;2023-09-12T10:12:36;20.30;99.90
13742;DHT22;8461;52.356;10.704;2023-09-12T10:15:04;20.50;99.90
13742;DHT22;8461;52.356;10.704;2023-09-12T10:17:36;20.60;99.90
13742;DHT22;8461;52.356;10.704;2023-09-12T10:20:03;20.70;99.90
13742;DHT22;8461;52.356;10.704;2023-09-12T10:22:39;20.80;99.90
13742;DHT22;8461;52.356;10.704;2023-09-12T10:25:07;21.10;99.90
13742;DHT22;8461;52.356;10.704;2023-09-12T10:30:00;21.30;99.90
13742;DHT22;8461;52.356;10.704;2023-09-12T10:32:28;21.60;99.90
13742;DHT22;8461;52.356;10.704;2023-09-12T10:34:58;21.50;99.90
13742;DHT22;8461;52.356;10.704;2023-09-12T10:37:25;21.70;99.90
13742;DHT22;8461;52.356;10.704;2023-09-12T10:39:55;21.60;99.90
13742;DHT22;8461;52.356;10.704;2023-09-12T10:42:22;22.00;99.90
13742;DHT22;8461;52.356;10.704;2023-09-12T10:44:50;22.00;99.90
13742;DHT22;8461;52.356;10.704;2023-09-12T10:49:44;22.00;99.90
13742;DHT22;8461;52.356;10.704;2023-09-12T10:52:10;22.10;99.90
13742;DHT22;8461;52.356;10.704;2023-09-12T10:54:37;22.10;99.90
13742;DHT22;8461;52.356;10.704;2023-09-12T10:57:10;22.20;99.90
13742;DHT22;8461;52.356;10.704;2023-09-12T11:02:39;22.30;99.90
13742;DHT22;8461;52.356;10.704;2023-09-12T11:05:06;22.40;99.90
13742;DHT22;8461;52.356;10.704;2023-09-12T11:10:24;22.50;99.90
13742;DHT22;8461;52.356;10.704;2023-09-12T11:12:52;22.50;99.90
13742;DHT22;8461;52.356;10.704;2023-09-12T11:15:19;22.60;99.90
13742;DHT22;8461;52.356;10.704;2023-09-12T11:18:05;22.50;99.90
13742;DHT22;8461;52.356;10.704;2023-09-12T11:20:50;22.50;99.90
13742;DHT22;8461;52.356;10.704;2023-09-12T11:23:17;22.30;99.90
13742;DHT22;8461;52.356;10.704;2023-09-12T11:25:43;22.20;99.90
13742;DHT22;8461;52.356;10.704;2023-09-12T11:28:09;22.40;99.90
13742;DHT22;8461;52.356;10.704;2023-09-12T11:30:34;22.60;99.90
13742;DHT22;8461;52.356;10.704;2023-09-12T11:33:04;22.80;99.90
13742;DHT22;8461;52.356;10.704;2023-09-12T11:35:36;22.90;99.90
13742;DHT22;8461;52.356;10.704;2023-09-12T11:38:02;23.20;99.90
13742;DHT22;8461;52.356;10.704;2023-09-12T11:43:00;23.00;99.90
13742;DHT22;8461;52.356;10.704;2023-09-12T11:45:26;23.10;99.90
13742;DHT22;8461;52.356;10.704;2023-09-12T11:47:53;23.10;99.90
13742;DHT22;8461;52.356;10.704;2023-09-12T11:50:52;23.20;99.90
13742;DHT22;8461;52.356;10.704;2023-09-12T11:53:28;23.30;99.90
13742;DHT22;8461;52.356;10.704;2023-09-12T11:55:59;23.30;99.90
13742;DHT22;8461;52.356;10.704;2023-09-12T11:58:26;23.40;99.90
13742;DHT22;8461;52.356;10.704;2023-09-12T12:00:55;23.50;99.90
13742;DHT22;8461;52.356;10.704;2023-09-12T12:03:22;23.40;99.90
13742;DHT22;8461;52.356;10.704;2023-09-12T12:05:49;23.40;99.90
13742;DHT22;8461;52.356;10.704;2023-09-12T12:08:16;23.30;99.90
13742;DHT22;8461;52.356;10.704;2023-09-12T12:10:42;23.10;99.90
13742;DHT22;8461;52.356;10.704;2023-09-12T12:13:18;22.90;99.90
13742;DHT22;8461;52.356;10.704;2023-09-12T12:15:44;22.60;99.90
13742;DHT22;8461;52.356;10.704;2023-09-12T12:18:09;22.70;99.90
13742;DHT22;8461;52.356;10.704;2023-09-12T12:20:35;22.80;99.90
13742;DHT22;8461;52.356;10.704;2023-09-12T12:23:01;22.60;99.90
13742;DHT22;8461;52.356;10.704;2023-09-12T12:25:26;22.50;99.90
13742;DHT22;8461;52.356;10.704;2023-09-12T12:27:56;22.70;99.90
13742;DHT22;8461;52.356;10.704;2023-09-12T12:30:22;22.60;99.90
13742;DHT22;8461;52.356;10.704;2023-09-12T12:32:47;22.40;99.90
13742;DHT22;8461;52.356;10.704;2023-09-12T12:35:19;22.40;99.90
13742;DHT22;8461;52.356;10.704;2023-09-12T12:37:45;22.50;99.90
13742;DHT22;8461;52.356;10.704;2023-09-12T12:40:14;22.60;99.90
13742;DHT22;8461;52.356;10.704;2023-09-12T12:42:40;22.50;99.90
13742;DHT22;8461;52.356;10.704;2023-09-12T12:45:17;22.30;99.90
13742;DHT22;8461;52.356;10.704;2023-09-12T12:47:43;22.20;99.90
13742;DHT22;8461;52.356;10.704;2023-09-12T12:50:14;22.20;99.90
13742;DHT22;8461;52.356;10.704;2023-09-12T12:52:40;22.40;99.90
13742;DHT22;8461;52.356;10.704;2023-09-12T12:55:10;22.50;99.90
13742;DHT22;8461;52.356;10.704;2023-09-12T12:57:40;22.50;99.90
13742;DHT22;8461;52.356;10.704;2023-09-12T13:00:11;23.10;99.90
13742;DHT22;8461;52.356;10.704;2023-09-12T13:02:37;22.70;99.90
13742;DHT22;8461;52.356;10.704;2023-09-12T13:05:04;22.70;99.90
13742;DHT22;8461;52.356;10.704;2023-09-12T13:07:34;22.70;99.90
13742;DHT22;8461;52.356;10.704;2023-09-12T13:10:00;22.80;99.90
13742;DHT22;8461;52.356;10.704;2023-09-12T13:12:26;23.00;99.90
13742;DHT22;8461;52.356;10.704;2023-09-12T13:14:51;23.10;99.90
13742;DHT22;8461;52.356;10.704;2023-09-12T13:17:17;23.10;99.90
13742;DHT22;8461;52.356;10.704;2023-09-12T13:19:42;22.90;99.90
13742;DHT22;8461;52.356;10.704;2023-09-12T13:22:08;22.90;99.90
13742;DHT22;8461;52.356;10.704;2023-09-12T13:24:33;22.80;99.90
13742;DHT22;8461;52.356;10.704;2023-09-12T13:26:59;22.60;99.90
13742;DHT22;8461;52.356;10.704;2023-09-12T13:29:24;22.30;99.90
13742;DHT22;8461;52.356;10.704;2023-09-12T13:31:50;22.20;99.90
13742;DHT22;8461;52.356;10.704;2023-09-12T13:34:16;22.00;99.90
13742;DHT22;8461;52.356;10.704;2023-09-12T13:36:42;21.90;99.90
13742;DHT22;8461;52.356;10.704;2023-09-12T13:39:07;22.00;99.90
13742;DHT22;8461;52.356;10.704;2023-09-12T13:41:33;22.00;99.90
13742;DHT22;8461;52.356;10.704;2023-09-12T13:43:59;22.10;99.90
13742;DHT22;8461;52.356;10.704;2023-09-12T13:46:24;22.20;99.90
13742;DHT22;8461;52.356;10.704;2023-09-12T13:48:50;22.30;99.90
13742;DHT22;8461;52.356;10.704;2023-09-12T13:51:15;22.40;99.90
13742;DHT22;8461;52.356;10.704;2023-09-12T13:53:41;22.60;99.90
13742;DHT22;8461;52.356;10.704;2023-09-12T13:56:06;22.60;99.90
13742;DHT22;8461;52.356;10.704;2023-09-12T13:58:33;22.70;99.90
13742;DHT22;8461;52.356;10.704;2023-09-12T14:00:59;22.80;99.90
13742;DHT22;8461;52.356;10.704;2023-09-12T14:03:24;22.90;99.90
13742;DHT22;8461;52.356;10.704;2023-09-12T14:05:50;22.90;99.90
13742;DHT22;8461;52.356;10.704;2023-09-12T14:08:15;22.80;99.90
13742;DHT22;8461;52.356;10.704;2023-09-12T14:10:41;23.00;99.90
13742;DHT22;8461;52.356;10.704;2023-09-12T14:13:07;23.00;99.90
13742;DHT22;8461;52.356;10.704;2023-09-12T14:15:33;22.90;99.90
13742;DHT22;8461;52.356;10.704;2023-09-12T14:17:59;23.10;99.90
13742;DHT22;8461;52.356;10.704;2023-09-12T14:20:24;23.10;99.90
13742;DHT22;8461;52.356;10.704;2023-09-12T14:22:50;23.20;99.90
13742;DHT22;8461;52.356;10.704;2023-09-12T14:25:15;23.20;99.90
13742;DHT22;8461;52.356;10.704;2023-09-12T14:27:42;23.10;99.90
13742;DHT22;8461;52.356;10.704;2023-09-12T14:30:09;23.10;99.90
13742;DHT22;8461;52.356;10.704;2023-09-12T14:32:34;23.10;99.90
13742;DHT22;8461;52.356;10.704;2023-09-12T14:35:00;23.10;99.90
13742;DHT22;8461;52.356;10.704;2023-09-12T14:37:25;23.10;99.90
13742;DHT22;8461;52.356;10.704;2023-09-12T14:39:53;23.10;99.90
13742;DHT22;8461;52.356;10.704;2023-09-12T14:42:19;23.20;99.90
13742;DHT22;8461;52.356;10.704;2023-09-12T14:44:44;23.10;99.90
13742;DHT22;8461;52.356;10.704;2023-09-12T14:47:10;23.20;99.90
13742;DHT22;8461;52.356;10.704;2023-09-12T14:49:35;23.20;99.90
13742;DHT22;8461;52.356;10.704;2023-09-12T14:52:01;23.30;99.90
13742;DHT22;8461;52.356;10.704;2023-09-12T14:54:26;23.30;99.90
13742;DHT22;8461;52.356;10.704;2023-09-12T14:56:52;23.10;99.90
13742;DHT22;8461;52.356;10.704;2023-09-12T14:59:18;23.10;99.90
13742;DHT22;8461;52.356;10.704;2023-09-12T15:01:44;23.10;99.90
13742;DHT22;8461;52.356;10.704;2023-09-12T15:04:10;23.10;99.90
13742;DHT22;8461;52.356;10.704;2023-09-12T15:06:36;23.30;99.90
13742;DHT22;8461;52.356;10.704;2023-09-12T15:09:02;23.30;99.90
13742;DHT22;8461;52.356;10.704;2023-09-12T15:11:27;23.30;99.90
13742;DHT22;8461;52.356;10.704;2023-09-12T15:13:53;23.40;99.90
13742;DHT22;8461;52.356;10.704;2023-09-12T15:16:18;23.30;99.90
13742;DHT22;8461;52.356;10.704;2023-09-12T15:18:44;23.30;99.90
13742;DHT22;8461;52.356;10.704;2023-09-12T15:21:10;23.40;99.90
13742;DHT22;8461;52.356;10.704;2023-09-12T15:23:36;23.30;99.90
13742;DHT22;8461;52.356;10.704;2023-09-12T15:26:01;23.20;99.90
13742;DHT22;8461;52.356;10.704;2023-09-12T15:28:27;23.20;99.90
13742;DHT22;8461;52.356;10.704;2023-09-12T15:30:52;23.30;99.90
13742;DHT22;8461;52.356;10.704;2023-09-12T15:33:19;23.20;99.90
13742;DHT22;8461;52.356;10.704;2023-09-12T15:35:45;23.20;99.90
13742;DHT22;8461;52.356;10.704;2023-09-12T15:38:10;23.30;99.90
13742;DHT22;8461;52.356;10.704;2023-09-12T15:40:36;23.20;99.90
13742;DHT22;8461;52.356;10.704;2023-09-12T15:43:02;23.20;99.90
13742;DHT22;8461;52.356;10.704;2023-09-12T15:45:28;23.10;99.90
13742;DHT22;8461;52.356;10.704;2023-09-12T15:47:53;23.10;99.90
13742;DHT22;8461;52.356;10.704;2023-09-12T15:50:19;23.10;99.90